createdAt,value
2023-07-25T00:00:26.711Z,19.37
2023-07-25T00:05:51.650Z,19.38
2023-07-25T00:10:55.989Z,19.34
2023-07-25T00:16:00.246Z,19.22
2023-07-25T00:21:05.174Z,18.98
2023-07-25T00:26:09.111Z,18.77
2023-07-25T00:31:13.019Z,18.76
2023-07-25T00:36:17.225Z,18.70
2023-07-25T00:41:20.984Z,18.63
2023-07-25T00:46:26.096Z,18.72
2023-07-25T00:51:30.315Z,18.73
2023-07-25T00:56:35.040Z,18.75
2023-07-25T01:01:39.875Z,18.74
2023-07-25T01:06:44.840Z,18.69
2023-07-25T01:11:48.607Z,18.71
2023-07-25T01:16:52.683Z,18.69
2023-07-25T01:21:58.783Z,18.66
2023-07-25T01:27:03.720Z,18.52
2023-07-25T01:32:08.900Z,18.45
2023-07-25T01:37:13.130Z,18.43
2023-07-25T01:42:17.135Z,18.33
2023-07-25T01:47:28.201Z,18.24
2023-07-25T01:52:34.234Z,18.19
2023-07-25T01:57:38.038Z,18.14
2023-07-25T02:02:42.628Z,18.09
2023-07-25T02:07:47.445Z,18.06
2023-07-25T02:12:51.572Z,18.03
2023-07-25T02:17:55.704Z,18.00
2023-07-25T02:27:15.038Z,17.92
2023-07-25T02:32:19.111Z,17.83
2023-07-25T02:37:23.050Z,17.69
2023-07-25T02:42:27.121Z,17.56
2023-07-25T02:47:32.241Z,17.46
2023-07-25T02:52:36.324Z,17.44
2023-07-25T02:57:40.350Z,17.36
2023-07-25T03:02:45.051Z,17.27
2023-07-25T03:07:49.382Z,17.24
2023-07-25T03:12:54.387Z,17.35
2023-07-25T03:17:58.602Z,17.44
2023-07-25T03:23:02.826Z,17.50
2023-07-25T03:28:06.839Z,17.57
2023-07-25T03:33:10.902Z,17.67
2023-07-25T03:38:14.958Z,17.70
2023-07-25T03:43:18.977Z,17.70
2023-07-25T03:48:23.200Z,17.71
2023-07-25T03:53:27.055Z,17.71
2023-07-25T03:58:31.170Z,17.72
2023-07-25T04:03:35.656Z,17.79
2023-07-25T04:08:40.004Z,17.89
2023-07-25T04:13:44.695Z,18.00
2023-07-25T04:18:49.027Z,18.07
2023-07-25T04:23:53.070Z,18.19
2023-07-25T04:28:57.422Z,18.36
2023-07-25T04:34:01.589Z,18.53
2023-07-25T04:39:05.994Z,18.62
2023-07-25T04:44:10.425Z,18.73
2023-07-25T04:49:14.671Z,18.84
2023-07-25T04:54:18.800Z,18.98
2023-07-25T04:59:22.923Z,19.16
2023-07-25T05:04:26.858Z,19.32
2023-07-25T05:09:31.096Z,19.48
2023-07-25T05:14:35.737Z,19.71
2023-07-25T05:19:44.623Z,19.96
2023-07-25T05:24:51.650Z,20.23
2023-07-25T05:29:58.487Z,20.45
2023-07-25T05:35:04.355Z,20.52
2023-07-25T05:40:09.190Z,20.70
2023-07-25T05:45:14.713Z,20.91
2023-07-25T05:50:20.957Z,21.24
2023-07-25T05:55:27.412Z,21.36
2023-07-25T06:00:31.854Z,21.37
2023-07-25T06:05:38.806Z,21.34
2023-07-25T06:10:43.912Z,21.33
2023-07-25T06:15:49.617Z,21.43
2023-07-25T06:20:53.847Z,21.64
2023-07-25T06:25:58.088Z,21.70
2023-07-25T06:31:04.383Z,21.54
2023-07-25T06:36:08.524Z,21.56
2023-07-25T06:41:12.946Z,21.36
2023-07-25T06:46:17.193Z,21.24
2023-07-25T06:51:22.237Z,21.21
2023-07-25T06:56:26.270Z,21.21
2023-07-25T07:01:30.926Z,21.30
2023-07-25T07:06:35.177Z,21.33
2023-07-25T07:11:41.062Z,21.36
2023-07-25T07:16:45.232Z,21.37
2023-07-25T07:21:49.712Z,21.58
2023-07-25T07:26:54.258Z,21.50
2023-07-25T07:31:58.580Z,21.51
2023-07-25T07:37:03.044Z,21.61
2023-07-25T07:42:07.474Z,21.93
2023-07-25T07:47:11.710Z,22.34
2023-07-25T07:52:25.786Z,22.60
2023-07-25T07:57:46.496Z,22.64
2023-07-25T08:02:53.239Z,22.68
2023-07-25T08:07:57.803Z,23.01
2023-07-25T08:13:01.979Z,23.39
2023-07-25T08:18:06.192Z,23.47
2023-07-25T08:23:10.538Z,23.69
2023-07-25T08:28:15.203Z,23.92
2023-07-25T08:33:21.489Z,24.22
2023-07-25T08:38:29.898Z,24.27
2023-07-25T08:43:40.977Z,24.19
2023-07-25T08:48:45.137Z,24.14
2023-07-25T08:54:07.234Z,24.65
2023-07-25T08:59:14.271Z,25.07
2023-07-25T09:04:21.859Z,25.40
2023-07-25T09:09:26.153Z,25.82
2023-07-25T09:14:30.602Z,25.39
2023-07-25T09:19:35.251Z,25.29
2023-07-25T09:24:41.566Z,25.42
2023-07-25T09:29:48.154Z,25.37
2023-07-25T09:35:04.228Z,25.57
2023-07-25T09:40:13.192Z,25.59
2023-07-25T09:45:17.332Z,25.83
2023-07-25T09:50:27.964Z,26.01
2023-07-25T09:55:33.940Z,26.35
2023-07-25T10:00:42.454Z,26.47
2023-07-25T10:05:49.793Z,26.22
2023-07-25T10:10:57.351Z,25.87
2023-07-25T10:16:07.145Z,25.89
2023-07-25T10:21:13.383Z,26.01
2023-07-25T10:26:21.586Z,25.48
2023-07-25T10:31:37.294Z,25.12
2023-07-25T10:36:41.374Z,24.68
2023-07-25T10:41:45.603Z,24.41
2023-07-25T10:46:50.673Z,24.27
2023-07-25T10:51:57.971Z,24.48
2023-07-25T10:57:10.886Z,24.56
2023-07-25T11:02:33.329Z,24.59
2023-07-25T11:07:37.567Z,24.69
2023-07-25T11:12:41.536Z,25.08
2023-07-25T11:17:45.586Z,25.44
2023-07-25T11:22:55.264Z,25.72
2023-07-25T11:27:59.553Z,25.51
2023-07-25T11:33:04.109Z,25.35
2023-07-25T11:38:09.490Z,25.44
2023-07-25T11:43:14.718Z,25.56
2023-07-25T11:48:21.828Z,25.56
2023-07-25T11:53:29.926Z,25.55
2023-07-25T11:58:36.660Z,25.35
2023-07-25T12:03:51.383Z,25.07
2023-07-25T12:08:55.502Z,25.03
2023-07-25T12:13:59.948Z,25.51
2023-07-25T12:19:13.862Z,25.80
2023-07-25T12:24:18.355Z,26.13
2023-07-25T12:29:26.686Z,26.54
2023-07-25T12:34:30.754Z,26.78
2023-07-25T12:39:34.998Z,26.91
2023-07-25T12:44:39.466Z,26.89
2023-07-25T12:49:44.331Z,27.03
2023-07-25T12:54:48.941Z,26.84
2023-07-25T12:59:52.975Z,26.79
2023-07-25T13:05:00.742Z,26.88
2023-07-25T13:10:05.592Z,26.91
2023-07-25T13:15:10.515Z,27.01
2023-07-25T13:20:14.637Z,27.24
2023-07-25T13:25:18.979Z,27.29
2023-07-25T13:30:23.218Z,27.35
2023-07-25T13:35:27.970Z,26.95
2023-07-25T13:40:32.310Z,26.61
2023-07-25T13:45:51.170Z,26.48
2023-07-25T13:50:56.539Z,26.36
2023-07-25T13:56:01.384Z,26.10
2023-07-25T14:01:05.973Z,25.70
2023-07-25T14:06:10.401Z,25.44
2023-07-25T14:11:15.331Z,25.25
2023-07-25T14:16:19.876Z,25.11
2023-07-25T14:21:24.216Z,24.90
2023-07-25T14:26:28.819Z,24.79
2023-07-25T14:31:35.626Z,24.72
2023-07-25T14:36:39.980Z,24.68
2023-07-25T14:41:44.430Z,24.59
2023-07-25T14:46:49.120Z,24.46
2023-07-25T14:51:53.305Z,24.42
2023-07-25T14:56:57.299Z,24.37
2023-07-25T15:02:01.612Z,24.27
2023-07-25T15:07:06.912Z,24.20
2023-07-25T15:12:11.698Z,24.09
2023-07-25T15:17:24.201Z,23.97
2023-07-25T15:22:29.431Z,23.84
2023-07-25T15:27:33.737Z,23.63
2023-07-25T15:32:38.232Z,23.49
2023-07-25T15:37:42.731Z,23.35
2023-07-25T15:42:47.144Z,23.18
2023-07-25T15:47:51.604Z,23.07
2023-07-25T15:52:56.233Z,22.98
2023-07-25T15:58:00.778Z,22.86
2023-07-25T16:03:05.519Z,22.76
2023-07-25T16:08:09.984Z,22.62
2023-07-25T16:13:16.389Z,22.54
2023-07-25T16:18:20.489Z,22.44
2023-07-25T16:23:25.041Z,22.35
2023-07-25T16:28:39.165Z,22.23
2023-07-25T16:33:47.157Z,22.11
2023-07-25T16:38:56.962Z,22.02
2023-07-25T16:44:04.759Z,21.92
2023-07-25T16:49:09.286Z,21.83
2023-07-25T16:54:13.403Z,21.68
2023-07-25T16:59:17.733Z,21.62
2023-07-25T17:04:21.745Z,21.55
2023-07-25T17:09:25.981Z,21.44
2023-07-25T17:14:30.127Z,21.32
2023-07-25T17:19:35.073Z,21.23
2023-07-25T17:24:39.923Z,21.12
2023-07-25T17:29:44.374Z,21.04
2023-07-25T17:34:48.499Z,20.92
2023-07-25T17:39:52.698Z,20.82
2023-07-25T17:51:11.688Z,20.55
2023-07-25T17:56:15.906Z,20.51
2023-07-25T18:01:20.067Z,20.46
2023-07-25T18:06:24.478Z,20.42
2023-07-25T18:11:28.831Z,20.40
2023-07-25T18:16:33.661Z,20.32
2023-07-25T18:21:37.902Z,20.19
2023-07-25T18:26:44.003Z,20.08
2023-07-25T18:31:48.692Z,19.97
2023-07-25T18:36:52.884Z,19.85
2023-07-25T18:41:57.299Z,19.69
2023-07-25T18:47:01.310Z,19.59
2023-07-25T18:52:06.653Z,19.52
2023-07-25T18:57:21.507Z,19.50
2023-07-25T19:02:25.679Z,19.44
2023-07-25T19:07:30.266Z,19.36
2023-07-25T19:12:34.922Z,19.27
2023-07-25T19:17:39.602Z,19.20
2023-07-25T19:22:44.018Z,19.12
2023-07-25T19:27:49.868Z,19.04
2023-07-25T19:32:54.060Z,18.95
2023-07-25T19:37:58.234Z,18.95
2023-07-25T19:43:02.999Z,18.95
2023-07-25T19:48:08.035Z,18.85
2023-07-25T19:53:16.898Z,18.71
2023-07-25T19:58:21.960Z,18.59
2023-07-25T20:03:26.121Z,18.54
2023-07-25T20:08:30.365Z,18.51
2023-07-25T20:13:37.132Z,18.46
2023-07-25T20:18:41.748Z,18.32
2023-07-25T20:23:46.089Z,18.18
2023-07-25T20:28:50.851Z,18.04
2023-07-25T20:33:55.407Z,18.01
2023-07-25T20:38:59.917Z,18.00
2023-07-25T20:44:04.182Z,17.93
2023-07-25T20:49:08.407Z,17.87
2023-07-25T20:54:13.146Z,17.81
2023-07-25T20:59:17.602Z,17.73
2023-07-25T21:04:22.029Z,17.63
2023-07-25T21:09:26.275Z,17.56
2023-07-25T21:14:30.894Z,17.52
2023-07-25T21:19:35.366Z,17.56
2023-07-25T21:24:39.954Z,17.55
2023-07-25T21:29:44.231Z,17.46
2023-07-25T21:34:48.982Z,17.34
2023-07-25T21:39:53.744Z,17.25
2023-07-25T21:44:57.874Z,17.17
2023-07-25T21:50:02.419Z,17.07
2023-07-25T21:55:07.523Z,17.10
2023-07-25T22:00:13.142Z,17.08
2023-07-25T22:05:17.399Z,16.95
2023-07-25T22:10:21.815Z,16.89
2023-07-25T22:15:25.944Z,16.83
2023-07-25T22:20:38.271Z,16.80
2023-07-25T22:25:50.994Z,16.78
2023-07-25T22:30:55.851Z,16.77
2023-07-25T22:36:00.127Z,16.63
2023-07-25T22:41:05.774Z,16.49
2023-07-25T22:46:10.243Z,16.43
2023-07-25T22:51:14.441Z,16.45
2023-07-25T22:56:18.792Z,16.48
2023-07-25T23:01:23.469Z,16.44
2023-07-25T23:06:27.984Z,16.39
2023-07-25T23:11:32.318Z,16.36
2023-07-25T23:16:36.440Z,16.34
2023-07-25T23:21:42.209Z,16.30
2023-07-25T23:26:46.439Z,16.23
2023-07-25T23:31:50.889Z,16.17
2023-07-25T23:36:56.365Z,16.11
2023-07-25T23:42:00.506Z,16.11
2023-07-25T23:47:06.023Z,16.13
2023-07-25T23:52:10.405Z,16.01
2023-07-25T23:57:14.538Z,15.87
